createdAt,value
2022-12-03T00:01:03.610Z,12.50
2022-12-03T00:03:37.088Z,12.90
2022-12-03T00:06:07.190Z,12.93
2022-12-03T00:08:36.810Z,12.75
2022-12-03T00:11:06.401Z,14.70
2022-12-03T00:13:38.773Z,14.13
2022-12-03T00:16:09.283Z,10.48
2022-12-03T00:18:39.050Z,13.02
2022-12-03T00:21:09.171Z,12.32
2022-12-03T00:23:42.310Z,13.45
2022-12-03T00:26:12.525Z,13.38
2022-12-03T00:28:44.984Z,12.57
2022-12-03T00:31:14.788Z,13.05
2022-12-03T00:33:44.550Z,13.23
2022-12-03T00:36:14.168Z,14.38
2022-12-03T00:38:43.901Z,14.25
2022-12-03T00:41:14.095Z,10.68
2022-12-03T00:43:46.469Z,12.57
2022-12-03T00:46:21.082Z,10.40
2022-12-03T00:48:51.355Z,11.98
2022-12-03T00:51:21.543Z,11.38
2022-12-03T00:53:51.462Z,11.90
2022-12-03T00:56:21.395Z,12.27
2022-12-03T00:58:54.280Z,12.95
2022-12-03T01:01:24.428Z,12.03
2022-12-03T01:03:54.505Z,12.45
2022-12-03T01:06:24.535Z,12.75
2022-12-03T01:08:54.529Z,12.85
2022-12-03T01:11:37.042Z,12.45
2022-12-03T01:14:10.245Z,13.05
2022-12-03T01:16:40.466Z,12.25
2022-12-03T01:19:16.067Z,12.82
2022-12-03T01:21:46.355Z,12.38
2022-12-03T01:24:16.471Z,15.80
2022-12-03T01:26:46.027Z,13.85
2022-12-03T01:29:18.254Z,11.82
2022-12-03T01:32:00.438Z,12.25
2022-12-03T01:34:30.558Z,12.85
2022-12-03T01:37:00.399Z,12.93
2022-12-03T01:39:30.510Z,13.05
2022-12-03T01:42:01.665Z,12.55
2022-12-03T01:44:36.639Z,11.85
2022-12-03T01:47:10.396Z,13.32
2022-12-03T01:49:44.193Z,11.48
2022-12-03T01:54:49.007Z,11.45
2022-12-03T01:57:24.996Z,12.38
2022-12-03T01:59:59.935Z,12.20
2022-12-03T02:02:32.202Z,12.25
2022-12-03T02:05:02.668Z,11.30
2022-12-03T02:07:34.638Z,12.32
2022-12-03T02:10:06.543Z,12.13
2022-12-03T02:12:39.979Z,14.70
2022-12-03T02:15:13.940Z,13.30
2022-12-03T02:17:44.714Z,11.32
2022-12-03T02:20:15.607Z,15.60
2022-12-03T02:22:51.180Z,12.80
2022-12-03T02:25:26.196Z,15.27
2022-12-03T02:27:57.645Z,13.93
2022-12-03T02:30:29.462Z,10.13
2022-12-03T02:32:59.677Z,11.30
2022-12-03T02:35:31.652Z,15.55
2022-12-03T02:38:05.029Z,14.00
2022-12-03T02:40:37.660Z,14.40
2022-12-03T02:43:08.119Z,15.05
2022-12-03T02:45:41.440Z,13.07
2022-12-03T02:48:14.839Z,13.57
2022-12-03T02:50:47.656Z,13.38
2022-12-03T02:53:21.239Z,12.63
2022-12-03T02:55:54.916Z,14.07
2022-12-03T02:58:26.076Z,12.88
2022-12-03T03:00:57.635Z,13.57
2022-12-03T03:03:30.582Z,12.50
2022-12-03T03:06:02.323Z,13.60
2022-12-03T03:08:33.501Z,13.13
2022-12-03T03:11:05.809Z,13.45
2022-12-03T03:13:37.500Z,14.20
2022-12-03T03:16:08.401Z,12.70
2022-12-03T03:18:39.061Z,13.82
2022-12-03T03:21:09.385Z,11.88
2022-12-03T03:23:39.000Z,13.52
2022-12-03T03:26:12.759Z,12.70
2022-12-03T03:31:17.466Z,11.65
2022-12-03T03:33:51.091Z,14.02
2022-12-03T03:36:22.547Z,12.93
2022-12-03T03:38:52.593Z,13.18
2022-12-03T03:41:25.242Z,8.52
2022-12-03T03:43:55.254Z,13.85
2022-12-03T03:46:25.489Z,12.45
2022-12-03T03:48:55.915Z,11.02
2022-12-03T03:51:25.827Z,12.57
2022-12-03T03:53:56.486Z,12.77
2022-12-03T03:56:28.975Z,11.82
2022-12-03T03:58:59.050Z,12.68
2022-12-03T04:01:29.744Z,12.52
2022-12-03T04:03:59.828Z,12.70
2022-12-03T04:06:29.624Z,13.82
2022-12-03T04:08:59.291Z,12.05
2022-12-03T04:11:44.117Z,12.85
2022-12-03T04:14:13.819Z,13.70
2022-12-03T04:16:43.610Z,12.30
2022-12-03T04:19:13.333Z,13.20
2022-12-03T04:21:55.439Z,11.43
2022-12-03T04:24:25.256Z,13.80
2022-12-03T04:27:09.975Z,13.25
2022-12-03T04:29:39.662Z,14.90
2022-12-03T04:32:21.738Z,12.43
2022-12-03T04:35:03.916Z,11.93
2022-12-03T04:37:34.260Z,11.93
2022-12-03T04:40:24.189Z,13.10
2022-12-03T04:42:56.765Z,13.55
2022-12-03T04:45:26.425Z,13.55
2022-12-03T04:47:56.457Z,11.80
2022-12-03T04:50:26.930Z,13.65
2022-12-03T04:52:58.845Z,13.40
2022-12-03T04:55:28.989Z,10.55
2022-12-03T04:58:02.909Z,11.45
2022-12-03T05:00:32.575Z,12.43
2022-12-03T05:03:02.558Z,14.35
2022-12-03T05:05:32.708Z,11.38
2022-12-03T05:08:02.496Z,14.13
2022-12-03T05:10:32.202Z,10.35
2022-12-03T05:13:04.941Z,11.25
2022-12-03T05:15:34.787Z,12.48
2022-12-03T05:18:04.450Z,13.23
2022-12-03T05:20:49.640Z,14.10
2022-12-03T05:23:22.670Z,15.20
2022-12-03T05:25:52.949Z,14.93
2022-12-03T05:28:25.608Z,12.27
2022-12-03T05:30:55.299Z,15.30
2022-12-03T05:33:29.925Z,13.65
2022-12-03T05:35:59.860Z,14.75
2022-12-03T05:38:33.285Z,13.57
2022-12-03T05:41:03.328Z,14.70
2022-12-03T05:43:33.355Z,14.18
2022-12-03T05:46:03.084Z,13.70
2022-12-03T05:48:33.503Z,12.70
2022-12-03T05:51:03.567Z,14.13
2022-12-03T05:53:35.366Z,12.30
2022-12-03T05:56:04.998Z,13.07
2022-12-03T05:58:37.342Z,12.30
2022-12-03T06:01:07.014Z,15.02
2022-12-03T06:03:37.075Z,14.20
2022-12-03T06:06:08.137Z,14.18
2022-12-03T06:08:38.120Z,14.73
2022-12-03T06:11:08.167Z,14.70
2022-12-03T06:13:43.505Z,14.82
2022-12-03T06:16:15.848Z,16.30
2022-12-03T06:18:48.876Z,13.52
2022-12-03T06:21:21.464Z,11.48
2022-12-03T06:23:51.210Z,13.48
2022-12-03T06:26:22.151Z,13.75
2022-12-03T06:28:54.935Z,13.63
2022-12-03T06:31:25.581Z,12.43
2022-12-03T06:33:55.546Z,12.70
2022-12-03T06:36:26.324Z,14.80
2022-12-03T06:38:57.676Z,16.10
2022-12-03T06:41:27.973Z,12.27
2022-12-03T06:44:00.502Z,13.93
2022-12-03T06:46:30.636Z,13.75
2022-12-03T06:49:00.590Z,15.93
2022-12-03T06:51:31.776Z,12.65
2022-12-03T06:54:04.091Z,12.75
2022-12-03T06:56:43.580Z,15.10
2022-12-03T06:59:17.489Z,11.90
2022-12-03T07:01:53.315Z,10.32
2022-12-03T07:04:24.149Z,14.38
2022-12-03T07:06:54.518Z,13.95
2022-12-03T07:09:24.972Z,15.15
2022-12-03T07:11:54.996Z,13.98
2022-12-03T07:14:27.563Z,15.40
2022-12-03T07:16:57.607Z,13.30
2022-12-03T07:19:32.274Z,14.95
2022-12-03T07:22:02.312Z,11.95
2022-12-03T07:24:32.849Z,14.35
2022-12-03T07:27:02.646Z,13.73
2022-12-03T07:29:35.539Z,14.10
2022-12-03T07:32:05.294Z,12.10
2022-12-03T07:34:35.247Z,14.25
2022-12-03T07:37:07.676Z,14.93
2022-12-03T07:39:40.858Z,15.48
2022-12-03T07:42:13.376Z,16.55
2022-12-03T07:44:45.843Z,15.73
2022-12-03T07:47:15.673Z,17.58
2022-12-03T07:49:45.740Z,16.23
2022-12-03T07:52:15.431Z,15.15
2022-12-03T07:54:44.991Z,16.52
2022-12-03T07:57:14.652Z,15.82
2022-12-03T07:59:49.358Z,15.57
2022-12-03T08:02:21.618Z,16.05
2022-12-03T08:04:52.055Z,16.00
2022-12-03T08:07:22.099Z,14.43
2022-12-03T08:09:52.565Z,16.10
2022-12-03T08:12:40.124Z,17.27
2022-12-03T08:15:18.736Z,13.57
2022-12-03T08:17:50.641Z,14.00
2022-12-03T08:20:23.216Z,14.65
2022-12-03T08:22:54.972Z,16.55
2022-12-03T08:25:26.768Z,15.40
2022-12-03T08:28:00.011Z,14.07
2022-12-03T08:30:32.565Z,16.95
2022-12-03T08:33:02.450Z,14.30
2022-12-03T08:35:34.165Z,16.25
2022-12-03T08:38:08.492Z,14.40
2022-12-03T08:40:40.396Z,15.32
2022-12-03T08:43:21.094Z,13.27
2022-12-03T08:45:54.743Z,14.13
2022-12-03T08:51:00.539Z,16.70
2022-12-03T08:53:36.223Z,15.48
2022-12-03T08:56:09.096Z,16.10
2022-12-03T08:58:43.670Z,15.07
2022-12-03T09:01:31.977Z,15.00
2022-12-03T09:04:18.758Z,17.48
2022-12-03T09:06:48.507Z,14.35
2022-12-03T09:09:18.583Z,15.70
2022-12-03T09:11:48.765Z,17.27
2022-12-03T09:14:21.333Z,18.17
2022-12-03T09:16:56.102Z,16.02
2022-12-03T09:19:26.504Z,15.23
2022-12-03T09:21:56.505Z,15.25
2022-12-03T09:24:26.238Z,16.45
2022-12-03T09:26:55.825Z,15.70
2022-12-03T09:29:25.455Z,11.85
2022-12-03T09:31:57.756Z,13.80
2022-12-03T09:34:27.627Z,15.57
2022-12-03T09:36:57.490Z,16.27
2022-12-03T09:39:27.046Z,15.10
2022-12-03T09:41:58.332Z,16.83
2022-12-03T09:44:28.974Z,13.82
2022-12-03T09:47:02.780Z,13.45
2022-12-03T09:52:05.673Z,15.32
2022-12-03T09:54:40.560Z,16.40
2022-12-03T09:57:15.246Z,15.45
2022-12-03T09:59:45.136Z,15.98
2022-12-03T10:02:24.136Z,14.38
2022-12-03T10:04:55.560Z,10.65
2022-12-03T10:07:25.917Z,14.60
2022-12-03T10:09:56.229Z,12.07
2022-12-03T10:12:27.315Z,16.30
2022-12-03T10:14:58.061Z,13.38
2022-12-03T10:17:33.668Z,16.00
2022-12-03T10:20:04.621Z,14.32
2022-12-03T10:22:37.428Z,15.25
2022-12-03T10:25:10.272Z,16.00
2022-12-03T10:27:40.103Z,14.00
2022-12-03T10:30:23.438Z,15.95
2022-12-03T10:32:55.691Z,17.85
2022-12-03T10:35:27.438Z,16.77
2022-12-03T10:38:04.764Z,17.05
2022-12-03T10:40:35.778Z,15.55
2022-12-03T10:43:23.783Z,15.98
2022-12-03T10:46:12.664Z,17.08
2022-12-03T10:48:45.043Z,18.00
2022-12-03T10:51:21.286Z,15.02
2022-12-03T10:53:52.711Z,15.43
2022-12-03T10:56:27.297Z,16.20
2022-12-03T10:58:58.077Z,16.55
2022-12-03T11:01:29.560Z,15.05
2022-12-03T11:04:07.796Z,15.65
2022-12-03T11:06:37.667Z,18.27
2022-12-03T11:09:09.277Z,15.00
2022-12-03T11:11:39.309Z,13.70
2022-12-03T11:14:09.151Z,15.88
2022-12-03T11:17:10.376Z,16.15
2022-12-03T11:19:55.268Z,16.30
2022-12-03T11:22:42.272Z,18.33
2022-12-03T11:25:50.797Z,14.05
2022-12-03T11:28:39.526Z,15.98
2022-12-03T11:31:15.136Z,17.25
2022-12-03T11:33:44.922Z,16.27
2022-12-03T11:36:31.965Z,16.38
2022-12-03T11:39:11.452Z,16.27
2022-12-03T11:41:41.442Z,17.27
2022-12-03T11:44:32.765Z,18.85
2022-12-03T11:47:11.589Z,14.82
2022-12-03T11:49:48.989Z,15.85
2022-12-03T11:52:32.001Z,17.65
2022-12-03T11:55:05.704Z,11.90
2022-12-03T12:00:21.211Z,15.88
2022-12-03T12:02:51.958Z,18.10
2022-12-03T12:05:32.599Z,16.15
2022-12-03T12:08:06.079Z,15.95
2022-12-03T12:10:44.690Z,17.35
2022-12-03T12:13:57.306Z,18.77
2022-12-03T12:16:46.132Z,14.95
2022-12-03T12:19:33.027Z,15.65
2022-12-03T12:22:25.069Z,15.90
2022-12-03T12:24:58.554Z,14.57
2022-12-03T12:27:35.064Z,15.57
2022-12-03T12:30:07.522Z,15.60
2022-12-03T12:32:44.331Z,15.07
2022-12-03T12:35:20.337Z,14.38
2022-12-03T12:38:00.191Z,13.50
2022-12-03T12:40:35.148Z,16.98
2022-12-03T12:43:12.690Z,15.90
2022-12-03T12:45:47.139Z,14.50
2022-12-03T12:48:25.363Z,15.25
2022-12-03T12:51:01.476Z,15.90
2022-12-03T12:53:34.388Z,16.35
2022-12-03T12:56:26.120Z,17.05
2022-12-03T12:58:56.300Z,15.70
2022-12-03T13:01:29.554Z,17.02
2022-12-03T13:04:00.160Z,16.70
2022-12-03T13:06:32.039Z,14.60
2022-12-03T13:09:01.833Z,14.85
2022-12-03T13:11:42.267Z,17.15
2022-12-03T13:14:18.985Z,17.85
2022-12-03T13:16:49.281Z,15.52
2022-12-03T13:19:25.488Z,15.52
2022-12-03T13:21:56.744Z,14.52
2022-12-03T13:24:36.778Z,16.63
2022-12-03T13:27:26.061Z,18.65
2022-12-03T13:29:58.707Z,15.70
2022-12-03T13:32:31.676Z,16.20
2022-12-03T13:35:07.107Z,16.45
2022-12-03T13:37:36.974Z,16.15
2022-12-03T13:40:15.203Z,17.90
2022-12-03T13:42:48.625Z,12.18
2022-12-03T13:45:37.898Z,15.55
2022-12-03T13:48:21.292Z,15.95
2022-12-03T13:50:51.842Z,15.32
2022-12-03T13:53:25.417Z,13.90
2022-12-03T13:55:59.491Z,16.75
2022-12-03T13:58:31.731Z,15.13
2022-12-03T14:01:01.668Z,12.80
2022-12-03T14:03:31.320Z,13.35
2022-12-03T14:06:00.988Z,12.85
2022-12-03T14:08:30.637Z,13.25
2022-12-03T14:11:01.022Z,13.57
2022-12-03T14:13:33.821Z,12.85
2022-12-03T14:16:03.629Z,13.15
2022-12-03T14:18:36.551Z,11.82
2022-12-03T14:21:06.651Z,12.18
2022-12-03T14:23:36.380Z,11.25
2022-12-03T14:26:06.154Z,13.00
2022-12-03T14:28:38.496Z,12.18
2022-12-03T14:31:08.453Z,13.00
2022-12-03T14:33:38.081Z,11.15
2022-12-03T14:36:08.322Z,10.63
2022-12-03T14:38:38.058Z,10.82
2022-12-03T14:41:27.956Z,12.98
2022-12-03T14:44:00.141Z,11.63
2022-12-03T14:46:33.088Z,11.00
2022-12-03T14:49:02.747Z,11.65
2022-12-03T14:51:32.442Z,11.20
2022-12-03T14:54:02.402Z,11.23
2022-12-03T14:56:32.123Z,9.77
2022-12-03T14:59:04.487Z,13.40
2022-12-03T15:01:34.418Z,15.25
2022-12-03T15:04:04.252Z,14.98
2022-12-03T15:06:33.996Z,15.52
2022-12-03T15:09:03.713Z,13.68
2022-12-03T15:11:33.906Z,15.18
2022-12-03T15:14:07.647Z,13.90
2022-12-03T15:19:07.003Z,14.70
2022-12-03T15:21:36.865Z,15.90
2022-12-03T15:24:07.158Z,17.98
2022-12-03T15:26:36.877Z,12.52
2022-12-03T15:29:09.147Z,14.35
2022-12-03T15:31:38.905Z,13.65
2022-12-03T15:34:08.572Z,12.95
2022-12-03T15:36:38.220Z,17.33
2022-12-03T15:39:08.007Z,14.27
2022-12-03T15:41:37.624Z,14.07
2022-12-03T15:44:09.873Z,15.35
2022-12-03T15:46:39.634Z,15.65
2022-12-03T15:49:09.318Z,16.25
2022-12-03T15:51:38.994Z,14.15
2022-12-03T15:54:09.068Z,13.23
2022-12-03T15:56:38.892Z,14.52
2022-12-03T15:59:11.078Z,16.00
2022-12-03T16:01:40.908Z,13.63
2022-12-03T16:04:10.882Z,15.55
2022-12-03T16:06:40.615Z,15.45
2022-12-03T16:09:10.323Z,16.42
2022-12-03T16:11:39.901Z,16.33
2022-12-03T16:14:12.180Z,16.67
2022-12-03T16:16:41.845Z,14.68
2022-12-03T16:19:11.457Z,15.98
2022-12-03T16:21:41.815Z,17.70
2022-12-03T16:24:11.571Z,14.30
2022-12-03T16:26:41.313Z,17.77
2022-12-03T16:29:13.589Z,17.85
2022-12-03T16:31:43.251Z,16.67
2022-12-03T16:34:12.918Z,17.15
2022-12-03T16:36:42.481Z,11.95
2022-12-03T16:39:12.752Z,15.88
2022-12-03T16:41:42.895Z,15.40
2022-12-03T16:44:30.570Z,14.57
2022-12-03T16:47:00.525Z,10.90
2022-12-03T16:49:30.792Z,13.18
2022-12-03T16:52:00.433Z,15.35
2022-12-03T16:54:30.002Z,13.13
2022-12-03T16:56:59.818Z,12.48
2022-12-03T16:59:32.090Z,10.98
2022-12-03T17:02:01.793Z,14.38
2022-12-03T17:04:31.449Z,11.27
2022-12-03T17:07:01.098Z,13.45
2022-12-03T17:09:30.854Z,13.20
2022-12-03T17:12:00.395Z,11.45
2022-12-03T17:14:33.541Z,10.95
2022-12-03T17:17:03.790Z,14.38
2022-12-03T17:19:33.708Z,13.60
2022-12-03T17:22:03.460Z,12.43
2022-12-03T17:24:33.410Z,8.60
2022-12-03T17:27:06.027Z,12.93
2022-12-03T17:29:38.217Z,12.48
2022-12-03T17:32:08.603Z,13.68
2022-12-03T17:34:38.402Z,13.85
2022-12-03T17:37:08.067Z,12.45
2022-12-03T17:39:37.708Z,9.02
2022-12-03T17:42:07.535Z,12.38
2022-12-03T17:44:39.656Z,13.27
2022-12-03T17:47:09.629Z,11.70
2022-12-03T17:49:39.349Z,11.80
2022-12-03T17:52:09.073Z,10.70
2022-12-03T17:55:08.274Z,11.68
2022-12-03T17:57:28.480Z,14.52
2022-12-03T18:00:00.867Z,15.48
2022-12-03T18:02:30.745Z,13.45
2022-12-03T18:05:00.865Z,14.02
2022-12-03T18:07:30.765Z,14.63
2022-12-03T18:10:00.761Z,12.73
2022-12-03T18:12:30.687Z,13.88
2022-12-03T18:15:02.998Z,17.35
2022-12-03T18:17:32.670Z,16.88
2022-12-03T18:20:02.376Z,15.40
2022-12-03T18:22:32.129Z,16.10
2022-12-03T18:25:02.118Z,17.27
2022-12-03T18:27:31.926Z,18.20
2022-12-03T18:30:04.399Z,18.13
2022-12-03T18:32:34.168Z,15.93
2022-12-03T18:35:03.817Z,18.17
2022-12-03T18:37:35.057Z,15.50
2022-12-03T18:40:12.657Z,16.92
2022-12-03T18:42:42.937Z,14.50
2022-12-03T18:45:16.482Z,16.30
2022-12-03T18:47:46.413Z,18.60
2022-12-03T18:50:16.268Z,15.25
2022-12-03T18:52:45.972Z,17.25
2022-12-03T18:55:19.947Z,17.73
2022-12-03T18:57:49.922Z,19.98
2022-12-03T19:00:22.963Z,16.38
2022-12-03T19:03:08.112Z,16.02
2022-12-03T19:05:38.348Z,18.13
2022-12-03T19:08:14.740Z,17.65
2022-12-03T19:10:45.239Z,19.42
2022-12-03T19:13:15.451Z,16.48
2022-12-03T19:15:49.129Z,17.00
2022-12-03T19:20:48.194Z,17.80
2022-12-03T19:23:18.130Z,17.65
2022-12-03T19:25:58.211Z,16.25
2022-12-03T19:28:28.221Z,16.40
2022-12-03T19:31:05.744Z,17.88
2022-12-03T19:33:36.570Z,16.17
2022-12-03T19:36:08.510Z,16.58
2022-12-03T19:38:39.613Z,17.17
2022-12-03T19:41:11.565Z,16.95
2022-12-03T19:43:41.579Z,16.70
2022-12-03T19:46:15.110Z,17.17
2022-12-03T19:48:45.066Z,17.23
2022-12-03T19:51:33.639Z,17.70
2022-12-03T19:54:04.605Z,14.55
2022-12-03T19:56:34.540Z,17.05
2022-12-03T19:59:05.175Z,17.58
2022-12-03T20:01:40.790Z,17.65
2022-12-03T20:04:11.354Z,14.38
2022-12-03T20:06:41.083Z,14.40
2022-12-03T20:09:13.603Z,18.63
2022-12-03T20:11:44.661Z,14.70
2022-12-03T20:14:17.056Z,17.20
2022-12-03T20:16:50.362Z,17.90
2022-12-03T20:19:21.124Z,15.18
2022-12-03T20:21:51.020Z,15.68
2022-12-03T20:24:21.197Z,14.55
2022-12-03T20:26:51.133Z,17.20
2022-12-03T20:29:21.084Z,17.92
2022-12-03T20:31:53.402Z,16.95
2022-12-03T20:34:23.048Z,20.02
2022-12-03T20:36:52.637Z,18.40
2022-12-03T20:39:22.338Z,17.75
2022-12-03T20:41:51.982Z,17.73
2022-12-03T20:44:21.863Z,16.77
2022-12-03T20:46:54.545Z,16.83
2022-12-03T20:49:24.364Z,18.70
2022-12-03T20:51:54.313Z,16.58
2022-12-03T20:54:24.208Z,18.38
2022-12-03T20:56:54.215Z,22.05
2022-12-03T20:59:24.275Z,18.77
2022-12-03T21:01:56.696Z,20.75
2022-12-03T21:04:26.621Z,13.57
2022-12-03T21:06:56.340Z,16.25
2022-12-03T21:09:25.902Z,17.45
2022-12-03T21:11:55.614Z,16.05
2022-12-03T21:14:25.392Z,14.75
2022-12-03T21:17:08.557Z,15.68
2022-12-03T21:19:38.930Z,16.58
2022-12-03T21:22:09.345Z,14.90
2022-12-03T21:24:39.362Z,15.82
2022-12-03T21:27:09.099Z,15.50
2022-12-03T21:29:38.990Z,15.55
2022-12-03T21:32:11.229Z,17.27
2022-12-03T21:34:41.946Z,16.67
2022-12-03T21:37:11.902Z,17.27
2022-12-03T21:39:41.526Z,18.35
2022-12-03T21:42:19.123Z,17.55
2022-12-03T21:45:00.723Z,18.15
2022-12-03T21:47:37.287Z,17.60
2022-12-03T21:50:09.441Z,17.08
2022-12-03T21:52:39.075Z,16.35
2022-12-03T21:55:09.513Z,16.90
2022-12-03T21:57:40.193Z,16.33
2022-12-03T22:00:11.894Z,17.98
2022-12-03T22:02:44.450Z,15.88
2022-12-03T22:05:14.973Z,15.15
2022-12-03T22:07:44.860Z,18.10
2022-12-03T22:10:15.527Z,16.23
2022-12-03T22:12:45.474Z,15.18
2022-12-03T22:15:18.704Z,14.35
2022-12-03T22:17:51.653Z,15.13
2022-12-03T22:20:21.493Z,17.02
2022-12-03T22:22:51.162Z,18.90
2022-12-03T22:25:21.168Z,18.08
2022-12-03T22:27:50.811Z,15.25
2022-12-03T22:30:20.467Z,16.50
2022-12-03T22:32:52.865Z,18.08
2022-12-03T22:35:22.726Z,19.38
2022-12-03T22:37:52.379Z,20.70
2022-12-03T22:40:22.462Z,16.38
2022-12-03T22:42:52.936Z,15.18
2022-12-03T22:45:22.856Z,15.07
2022-12-03T22:47:55.491Z,14.80
2022-12-03T22:50:25.598Z,17.35
2022-12-03T22:52:55.566Z,14.90
2022-12-03T22:55:25.404Z,18.05
2022-12-03T22:57:55.330Z,19.55
2022-12-03T23:00:32.682Z,17.08
2022-12-03T23:03:05.520Z,16.67
2022-12-03T23:05:38.578Z,21.08
2022-12-03T23:08:08.953Z,16.83
2022-12-03T23:10:41.002Z,17.35
2022-12-03T23:13:11.323Z,20.50
2022-12-03T23:15:41.567Z,14.73
2022-12-03T23:18:13.834Z,17.50
2022-12-03T23:20:47.373Z,18.58
2022-12-03T23:23:18.084Z,17.98
2022-12-03T23:25:48.053Z,17.38
2022-12-03T23:28:17.634Z,16.80
2022-12-03T23:30:47.359Z,16.27
2022-12-03T23:33:19.646Z,19.98
2022-12-03T23:35:49.348Z,18.42
2022-12-03T23:38:19.239Z,16.40
2022-12-03T23:40:48.889Z,18.17
2022-12-03T23:43:18.712Z,17.70
2022-12-03T23:45:48.369Z,18.75
2022-12-03T23:48:20.607Z,16.45
2022-12-03T23:50:50.224Z,17.90
2022-12-03T23:53:19.963Z,18.52
2022-12-03T23:55:49.576Z,17.75
2022-12-03T23:58:19.289Z,18.58
